createdAt,value
2022-10-05T00:01:00.161Z,8.80
2022-10-05T00:06:11.481Z,7.90
2022-10-05T00:11:17.318Z,7.60
2022-10-05T00:16:21.835Z,8.10
2022-10-05T00:21:27.717Z,6.90
2022-10-05T00:26:33.792Z,7.00
2022-10-05T00:31:37.265Z,8.60
2022-10-05T00:36:40.621Z,8.50
2022-10-05T00:47:35.161Z,7.60
2022-10-05T00:52:56.802Z,8.80
2022-10-05T00:58:28.171Z,7.80
2022-10-05T01:03:53.842Z,8.60
2022-10-05T01:09:24.767Z,8.10
2022-10-05T01:14:52.637Z,7.90
2022-10-05T01:20:10.924Z,7.50
2022-10-05T01:25:39.700Z,7.60
2022-10-05T01:31:01.309Z,7.70
2022-10-05T01:36:29.520Z,7.60
2022-10-05T01:42:09.679Z,8.40
2022-10-05T01:47:22.188Z,7.80
2022-10-05T01:52:51.283Z,7.50
2022-10-05T01:58:07.235Z,7.50
2022-10-05T02:03:35.919Z,7.90
2022-10-05T02:08:47.120Z,7.60
2022-10-05T02:14:07.579Z,7.90
2022-10-05T02:19:36.600Z,8.20
2022-10-05T02:24:46.056Z,8.30
2022-10-05T02:29:53.563Z,5.70
2022-10-05T02:35:02.941Z,7.30
2022-10-05T02:40:38.845Z,7.90
2022-10-05T02:46:03.690Z,8.10
2022-10-05T02:51:23.500Z,7.30
2022-10-05T02:56:56.561Z,8.20
2022-10-05T03:02:13.285Z,8.60
2022-10-05T03:07:23.746Z,8.30
2022-10-05T03:12:51.099Z,8.10
2022-10-05T03:18:06.536Z,7.60
2022-10-05T03:23:33.442Z,8.80
2022-10-05T03:29:00.616Z,7.50
2022-10-05T03:34:09.626Z,7.40
2022-10-05T03:39:12.710Z,8.70
2022-10-05T03:44:38.353Z,7.70
2022-10-05T03:50:13.721Z,7.40
2022-10-05T03:55:35.343Z,7.10
2022-10-05T04:00:40.931Z,7.80
2022-10-05T04:06:01.334Z,8.10
2022-10-05T04:11:17.569Z,9.20
2022-10-05T04:16:29.801Z,7.10
2022-10-05T04:21:38.800Z,8.90
2022-10-05T04:26:57.852Z,8.40
2022-10-05T04:32:16.180Z,8.40
2022-10-05T04:37:27.539Z,8.70
2022-10-05T04:42:39.812Z,7.60
2022-10-05T04:47:55.433Z,7.40
2022-10-05T04:53:04.523Z,7.10
2022-10-05T04:58:07.535Z,8.60
2022-10-05T05:03:16.589Z,7.80
2022-10-05T05:08:58.407Z,7.90
2022-10-05T05:14:17.115Z,9.30
2022-10-05T05:19:35.799Z,8.60
2022-10-05T05:24:55.659Z,8.70
2022-10-05T05:30:12.690Z,8.50
2022-10-05T05:35:25.255Z,7.70
2022-10-05T05:40:34.160Z,9.50
2022-10-05T05:45:42.722Z,8.10
2022-10-05T05:51:08.942Z,8.70
2022-10-05T05:56:21.158Z,10.10
2022-10-05T06:01:33.531Z,9.20
2022-10-05T06:06:42.806Z,10.40
2022-10-05T06:11:55.455Z,9.60
2022-10-05T06:17:05.528Z,8.80
2022-10-05T06:22:29.660Z,10.10
2022-10-05T06:28:03.998Z,8.50
2022-10-05T06:33:50.593Z,9.10
2022-10-05T06:39:16.020Z,9.00
2022-10-05T06:44:49.345Z,9.90
2022-10-05T06:50:14.299Z,9.90
2022-10-05T06:55:51.247Z,10.40
2022-10-05T07:01:11.130Z,8.90
2022-10-05T07:06:44.466Z,8.60
2022-10-05T07:12:12.554Z,8.30
2022-10-05T07:18:07.173Z,7.80
2022-10-05T07:23:20.106Z,7.70
2022-10-05T07:29:11.032Z,7.70
2022-10-05T07:34:22.839Z,7.60
2022-10-05T07:40:00.595Z,7.50
2022-10-05T07:45:23.847Z,7.70
2022-10-05T07:50:39.022Z,7.80
2022-10-05T07:55:50.425Z,7.10
2022-10-05T08:00:53.528Z,7.00
2022-10-05T08:05:59.837Z,6.40
2022-10-05T08:11:29.642Z,6.70
2022-10-05T08:16:38.168Z,6.80
2022-10-05T08:22:11.801Z,6.40
2022-10-05T08:27:33.948Z,6.50
2022-10-05T08:33:03.164Z,6.20
2022-10-05T08:38:18.864Z,6.20
2022-10-05T08:43:55.151Z,6.00
2022-10-05T08:49:42.389Z,6.30
2022-10-05T08:54:54.918Z,6.10
2022-10-05T09:00:04.741Z,6.40
2022-10-05T09:05:45.228Z,5.40
2022-10-05T09:11:09.460Z,6.60
2022-10-05T09:16:31.922Z,5.00
2022-10-05T09:21:57.413Z,5.80
2022-10-05T09:27:03.632Z,5.70
2022-10-05T09:32:21.582Z,6.10
2022-10-05T09:37:44.963Z,6.10
2022-10-05T09:42:58.431Z,6.10
2022-10-05T09:48:22.567Z,5.20
2022-10-05T09:53:47.530Z,5.40
2022-10-05T09:58:55.091Z,5.20
2022-10-05T10:04:21.841Z,5.50
2022-10-05T10:09:40.703Z,4.60
2022-10-05T10:15:15.531Z,4.50
2022-10-05T10:20:49.158Z,4.50
2022-10-05T10:26:28.357Z,4.40
2022-10-05T10:31:47.964Z,4.50
2022-10-05T10:37:32.979Z,4.90
2022-10-05T10:42:57.003Z,4.10
2022-10-05T10:48:19.993Z,4.10
2022-10-05T10:53:49.066Z,5.30
2022-10-05T10:59:11.428Z,4.20
2022-10-05T11:04:40.232Z,4.20
2022-10-05T11:10:02.182Z,4.10
2022-10-05T11:15:22.254Z,4.30
2022-10-05T11:20:58.456Z,4.00
2022-10-05T11:26:27.880Z,5.50
2022-10-05T11:31:34.734Z,3.80
2022-10-05T11:36:57.464Z,4.30
2022-10-05T11:42:22.989Z,3.90
2022-10-05T11:47:38.261Z,3.80
2022-10-05T11:53:02.668Z,3.70
2022-10-05T11:58:12.064Z,3.20
2022-10-05T12:03:29.071Z,3.70
2022-10-05T12:09:11.165Z,3.80
2022-10-05T12:14:37.834Z,3.60
2022-10-05T12:19:49.570Z,3.20
2022-10-05T12:25:30.528Z,3.30
2022-10-05T12:31:15.379Z,3.40
2022-10-05T12:36:35.922Z,2.70
2022-10-05T12:42:29.360Z,3.30
2022-10-05T12:47:38.250Z,3.10
2022-10-05T12:53:15.863Z,3.20
2022-10-05T12:58:46.108Z,3.10
2022-10-05T13:04:11.023Z,3.70
2022-10-05T13:09:44.850Z,3.20
2022-10-05T13:15:01.883Z,3.30
2022-10-05T13:20:37.756Z,3.50
2022-10-05T13:25:53.974Z,3.50
2022-10-05T13:31:28.272Z,3.70
2022-10-05T13:36:44.518Z,4.20
2022-10-05T13:42:00.218Z,3.50
2022-10-05T13:47:27.901Z,3.60
2022-10-05T13:52:45.238Z,3.70
2022-10-05T13:58:06.161Z,3.80
2022-10-05T14:03:31.649Z,3.60
2022-10-05T14:08:46.543Z,3.60
2022-10-05T14:13:50.605Z,3.50
2022-10-05T14:19:05.999Z,3.80
2022-10-05T14:24:45.188Z,3.40
2022-10-05T14:30:01.916Z,4.10
2022-10-05T14:35:13.071Z,3.60
2022-10-05T14:40:29.398Z,3.70
2022-10-05T14:45:34.193Z,4.00
2022-10-05T14:51:12.972Z,4.90
2022-10-05T14:56:22.946Z,5.00
2022-10-05T15:01:31.916Z,5.10
2022-10-05T15:06:55.443Z,5.60
2022-10-05T15:12:02.769Z,5.40
2022-10-05T15:17:18.474Z,5.30
2022-10-05T15:22:50.672Z,5.70
2022-10-05T15:28:49.003Z,5.00
2022-10-05T15:34:19.105Z,5.60
2022-10-05T15:39:40.842Z,5.50
2022-10-05T15:45:07.894Z,6.30
2022-10-05T15:50:24.965Z,5.80
2022-10-05T15:55:43.619Z,6.90
2022-10-05T16:01:06.428Z,5.50
2022-10-05T16:06:43.897Z,6.50
2022-10-05T16:11:59.568Z,6.90
2022-10-05T16:17:29.220Z,7.60
2022-10-05T16:22:43.526Z,20.70
2022-10-05T16:28:20.743Z,12.70
2022-10-05T16:33:53.971Z,15.00
2022-10-05T16:39:22.531Z,18.70
2022-10-05T16:44:53.671Z,22.80
2022-10-05T16:50:28.112Z,21.20
2022-10-05T16:55:43.082Z,22.00
2022-10-05T17:01:07.130Z,29.90
2022-10-05T17:06:23.501Z,51.90
2022-10-05T17:11:43.398Z,65.80
2022-10-05T17:16:56.391Z,44.90
2022-10-05T17:22:25.164Z,32.60
2022-10-05T17:27:51.309Z,31.50
2022-10-05T17:32:58.753Z,38.40
2022-10-05T17:38:22.466Z,25.40
2022-10-05T17:43:34.288Z,27.90
2022-10-05T17:48:37.413Z,23.40
2022-10-05T17:59:10.142Z,19.70
2022-10-05T18:04:26.812Z,19.40
2022-10-05T18:09:34.807Z,25.80
2022-10-05T18:14:58.352Z,16.80
2022-10-05T18:20:20.486Z,13.10
2022-10-05T18:25:35.540Z,26.50
2022-10-05T18:31:05.225Z,27.00
2022-10-05T18:36:37.878Z,38.60
2022-10-05T18:42:03.998Z,36.40
2022-10-05T18:47:28.598Z,34.50
2022-10-05T18:53:13.166Z,24.70
2022-10-05T18:58:42.794Z,25.30
2022-10-05T19:03:56.166Z,16.40
2022-10-05T19:09:17.774Z,23.30
2022-10-05T19:14:53.998Z,30.20
2022-10-05T19:20:14.343Z,32.90
2022-10-05T19:25:47.994Z,31.60
2022-10-05T19:46:56.770Z,29.40
2022-10-05T19:52:00.970Z,24.80
2022-10-05T19:57:17.644Z,18.20
2022-10-05T20:02:26.372Z,16.90
2022-10-05T20:07:30.587Z,15.00
2022-10-05T20:12:57.914Z,16.60
2022-10-05T20:18:54.906Z,14.10
2022-10-05T20:24:19.921Z,18.40
2022-10-05T20:29:23.678Z,11.60
2022-10-05T20:34:27.329Z,11.10
2022-10-05T20:39:31.883Z,11.80
2022-10-05T20:44:37.771Z,12.90
2022-10-05T20:49:42.209Z,10.50
2022-10-05T20:59:54.551Z,10.00
2022-10-05T21:04:57.804Z,16.40
2022-10-05T21:15:13.059Z,10.30
2022-10-05T21:20:16.510Z,17.30
2022-10-05T21:25:19.893Z,10.90
2022-10-05T21:35:26.719Z,9.30
2022-10-05T21:40:29.968Z,9.40
2022-10-05T21:50:38.283Z,9.40
2022-10-05T21:55:45.644Z,12.70
2022-10-05T22:00:49.907Z,9.80
2022-10-05T22:05:53.090Z,9.30
2022-10-05T22:16:00.274Z,9.60
2022-10-05T22:21:06.546Z,9.70
2022-10-05T22:26:13.153Z,8.50
2022-10-05T22:31:18.582Z,9.20
2022-10-05T22:36:22.043Z,9.80
2022-10-05T22:41:25.651Z,9.70
2022-10-05T22:46:28.897Z,8.70
2022-10-05T22:56:35.380Z,9.30
2022-10-05T23:01:38.749Z,8.70
2022-10-05T23:11:52.336Z,9.40
2022-10-05T23:16:55.924Z,9.50
2022-10-05T23:21:59.113Z,9.60
2022-10-05T23:32:05.418Z,9.50
2022-10-05T23:37:08.936Z,9.40
2022-10-05T23:42:14.805Z,9.20
2022-10-05T23:47:17.910Z,9.40
2022-10-05T23:52:21.528Z,8.70
2022-10-05T23:57:25.452Z,10.10
